SBFL/FLN METAR and TAF weather

Enter ICAO airport designator
Station Type Date Time Source
SBFL METAR 2019/12/06 09:00 UTC NOAA

SBFL 060900Z 20005KT 9999 BKN030 19/16 Q1011


Station Type Date Time Source
SBFL Decoded METAR 2019/12/06 09:00 UTC NOAA

Florianopolis Aeroporto , Brazil (SBFL) 27-40S 048-33W 5M
Dec 06, 2019 - 04:00 AM EST / 2019.12.06 0900 UTC
Wind: from the SSW (200 degrees) at 6 MPH (5 KT):0
Visibility: greater than 7 mile(s):0
Sky conditions: mostly cloudy
Temperature: 66 F (19 C)
Dew Point: 60 F (16 C)
Relative Humidity: 82%
Pressure (altimeter): 29.85 in. Hg (1011 hPa)
ob: SBFL 060900Z 20005KT 9999 BKN030 19/16 Q1011
cycle: 9

Station Type Date Time Source
SBFL TAF 2019/12/06 06:57 UTC NOAA

TAF SBFL 060400Z 0606/0706 18010KT 9999 BKN020 TN18/0608Z TX28/0618Z
BECMG 0612/0614 06008KT BKN030
BECMG 0700/0702 33006KT
RMK PEL

Example: see airport list